Time;durP1;ratioP1;P1;durP2;ratioP2;P2;SDS_P1;SDS_P2;PMS_P1;PMS_P2;Temp;Humidity;BMP_temperature;BMP_pressure;BME280_temperature;BME280_humidity;BME280_pressure;Samples;Min_cycle;Max_cycle;Signal;HPM_P1;HPM_P2
2021/10/24 00:02:21;;;;;;;37.28;19.17;;;6.10;99.90;;;;;;5051673;28;20029;-86
2021/10/24 00:04:47;;;;;;;29.15;17.90;;;6.10;99.90;;;;;;5054672;28;20025;-86
2021/10/24 00:07:13;;;;;;;30.65;17.42;;;6.10;99.90;;;;;;5054493;28;20064;-86
2021/10/24 00:09:39;;;;;;;27.65;17.13;;;6.10;99.90;;;;;;5052938;28;20124;-86
2021/10/24 00:12:05;;;;;;;35.45;18.75;;;6.10;99.90;;;;;;5057911;28;20487;-86
2021/10/24 00:14:30;;;;;;;28.65;17.38;;;6.10;99.90;;;;;;5068253;28;20056;-86
2021/10/24 00:16:56;;;;;;;28.63;17.52;;;6.00;99.90;;;;;;5062266;28;20024;-86
2021/10/24 00:19:22;;;;;;;28.95;17.17;;;6.00;99.90;;;;;;5067139;28;20029;-86
2021/10/24 00:21:47;;;;;;;31.92;19.80;;;6.00;99.90;;;;;;5072246;28;20074;-86
2021/10/24 00:24:13;;;;;;;32.35;19.27;;;6.00;99.90;;;;;;5052969;28;20048;-85
2021/10/24 00:26:38;;;;;;;33.65;17.30;;;6.00;99.90;;;;;;5072247;28;20484;-86
2021/10/24 00:29:04;;;;;;;28.13;17.52;;;6.00;99.90;;;;;;5048228;28;20032;-86
2021/10/24 00:31:30;;;;;;;37.75;18.52;;;5.90;99.90;;;;;;5060373;28;20075;-86
2021/10/24 00:33:57;;;;;;;29.13;17.88;;;5.90;99.90;;;;;;5054397;28;20607;-86
2021/10/24 00:36:23;;;;;;;30.83;17.88;;;5.90;99.90;;;;;;5056348;28;20027;-86
2021/10/24 00:38:48;;;;;;;29.17;18.83;;;5.90;99.90;;;;;;5053795;28;20042;-86
2021/10/24 00:41:14;;;;;;;33.85;18.27;;;5.90;99.90;;;;;;5072223;28;20025;-86
2021/10/24 00:43:40;;;;;;;29.58;17.40;;;5.80;99.90;;;;;;5053173;28;20031;-86
2021/10/24 00:46:05;;;;;;;31.17;17.10;;;5.80;99.90;;;;;;5047385;28;20127;-86
2021/10/24 00:48:31;;;;;;;27.35;16.50;;;5.80;99.90;;;;;;5069958;28;20055;-86
2021/10/24 00:50:57;;;;;;;27.92;16.83;;;5.80;99.90;;;;;;5067994;28;20562;-86
2021/10/24 00:53:22;;;;;;;25.02;16.90;;;5.80;99.90;;;;;;5065160;28;20035;-86
2021/10/24 00:55:48;;;;;;;31.10;16.88;;;5.70;99.90;;;;;;5044431;28;20366;-86
2021/10/24 00:58:18;;;;;;;32.38;16.90;;;5.70;99.90;;;;;;5075639;28;20025;-86
2021/10/24 01:00:44;;;;;;;27.73;16.98;;;5.70;99.90;;;;;;5057679;28;20562;-86
2021/10/24 01:03:12;;;;;;;30.30;17.25;;;5.70;99.90;;;;;;5073161;28;20107;-85
2021/10/24 01:05:37;;;;;;;29.92;16.75;;;5.70;99.90;;;;;;5069178;28;20063;-86
2021/10/24 01:08:04;;;;;;;31.23;16.92;;;5.70;99.90;;;;;;5060342;28;20029;-86
2021/10/24 01:10:30;;;;;;;30.80;17.92;;;5.70;99.90;;;;;;5058103;28;20044;-86
2021/10/24 01:12:56;;;;;;;27.30;16.88;;;5.70;99.90;;;;;;5056995;28;20031;-86
2021/10/24 01:15:23;;;;;;;29.80;16.52;;;5.60;99.90;;;;;;5057204;28;20116;-86
2021/10/24 01:17:50;;;;;;;27.15;17.48;;;5.70;99.90;;;;;;5070189;28;20025;-86
2021/10/24 01:20:18;;;;;;;31.13;16.23;;;5.60;99.90;;;;;;5052339;28;20037;-86
2021/10/24 01:22:43;;;;;;;28.63;16.85;;;5.60;99.90;;;;;;5056286;28;20039;-86
2021/10/24 01:25:09;;;;;;;30.50;17.30;;;5.60;99.90;;;;;;5063092;28;20115;-86
2021/10/24 01:27:36;;;;;;;33.47;17.02;;;5.60;99.90;;;;;;5071279;28;20391;-86
2021/10/24 01:30:04;;;;;;;26.35;16.60;;;5.60;99.90;;;;;;5074788;28;20115;-86
2021/10/24 01:32:30;;;;;;;31.13;16.42;;;5.60;99.90;;;;;;5046706;28;20034;-86
2021/10/24 01:34:59;;;;;;;29.13;17.33;;;5.50;99.90;;;;;;5075401;28;20023;-86
2021/10/24 01:37:36;;;;;;;26.55;16.27;;;5.50;99.90;;;;;;5055034;28;20040;-86
2021/10/24 01:40:05;;;;;;;32.53;16.20;;;5.50;99.90;;;;;;5054362;28;20028;-86
2021/10/24 01:42:31;;;;;;;23.77;15.05;;;5.50;99.90;;;;;;5043530;28;20119;-86
2021/10/24 01:44:57;;;;;;;27.80;16.65;;;5.50;99.90;;;;;;5062923;28;20063;-86
2021/10/24 01:47:22;;;;;;;28.45;16.23;;;5.50;99.90;;;;;;5042042;28;20033;-85
2021/10/24 01:49:48;;;;;;;34.33;17.15;;;5.50;99.90;;;;;;5061056;28;20514;-87
2021/10/24 01:52:15;;;;;;;23.23;15.95;;;5.40;99.90;;;;;;5048681;28;20036;-86
2021/10/24 01:54:40;;;;;;;23.70;15.20;;;5.40;99.90;;;;;;5063965;28;20032;-87
2021/10/24 01:57:06;;;;;;;26.45;15.95;;;5.40;99.90;;;;;;5056963;28;20024;-86
2021/10/24 01:59:32;;;;;;;27.77;15.45;;;5.40;99.90;;;;;;5056541;28;20052;-86
2021/10/24 02:01:57;;;;;;;33.83;15.65;;;5.40;99.90;;;;;;5059673;28;20074;-87
2021/10/24 02:04:23;;;;;;;27.75;16.13;;;5.40;99.90;;;;;;5053090;28;20426;-87
2021/10/24 02:06:48;;;;;;;27.98;16.08;;;5.40;99.90;;;;;;5056717;28;20116;-86
2021/10/24 02:09:14;;;;;;;31.33;17.38;;;5.30;99.90;;;;;;5056183;28;20040;-87
2021/10/24 02:11:39;;;;;;;30.40;17.38;;;5.30;99.90;;;;;;5056764;28;20031;-87
2021/10/24 02:14:05;;;;;;;29.17;16.55;;;5.30;99.90;;;;;;5058594;28;20070;-86
2021/10/24 02:16:31;;;;;;;32.20;17.40;;;5.30;99.90;;;;;;5057375;28;20024;-86
2021/10/24 02:18:56;;;;;;;26.00;16.48;;;5.30;99.90;;;;;;5054508;28;20033;-87
2021/10/24 02:21:21;;;;;;;26.40;16.25;;;5.30;99.90;;;;;;5050057;28;20477;-87
2021/10/24 02:23:47;;;;;;;29.60;16.58;;;5.20;99.90;;;;;;5068792;28;20080;-86
2021/10/24 02:26:13;;;;;;;31.15;16.92;;;5.20;99.90;;;;;;5073401;28;20033;-87
2021/10/24 02:28:38;;;;;;;28.08;16.42;;;5.20;99.90;;;;;;5055929;28;20383;-87
2021/10/24 02:31:04;;;;;;;32.60;17.15;;;5.20;99.90;;;;;;5056469;28;20039;-86
2021/10/24 02:33:29;;;;;;;30.15;18.50;;;5.20;99.90;;;;;;5052035;28;20119;-87
2021/10/24 02:35:55;;;;;;;30.10;16.50;;;5.10;99.90;;;;;;5055378;28;20124;-86
2021/10/24 02:38:20;;;;;;;29.90;16.88;;;5.20;99.90;;;;;;5063516;28;20161;-86
2021/10/24 02:40:46;;;;;;;30.40;17.30;;;5.10;99.90;;;;;;5055749;28;20092;-87
2021/10/24 02:43:11;;;;;;;26.63;16.48;;;5.10;99.90;;;;;;5056439;28;20036;-87
2021/10/24 02:45:37;;;;;;;28.55;16.35;;;5.10;99.90;;;;;;5053315;28;20116;-86
2021/10/24 02:48:04;;;;;;;28.30;17.02;;;5.10;99.90;;;;;;5055337;28;20086;-86
2021/10/24 02:50:29;;;;;;;25.33;16.08;;;5.10;99.90;;;;;;5069425;28;20039;-87
2021/10/24 02:52:55;;;;;;;33.95;17.15;;;5.10;99.90;;;;;;5065088;28;20020;-87
2021/10/24 02:55:21;;;;;;;39.50;17.05;;;5.10;99.90;;;;;;5047892;28;20059;-87
2021/10/24 02:57:46;;;;;;;28.25;16.58;;;5.00;99.90;;;;;;5067246;28;20021;-87
2021/10/24 03:00:12;;;;;;;29.52;16.95;;;5.00;99.90;;;;;;5055509;28;20027;-86
2021/10/24 03:02:38;;;;;;;24.17;15.63;;;5.00;99.90;;;;;;5060303;28;20054;-87
2021/10/24 03:05:08;;;;;;;35.78;17.52;;;5.00;99.90;;;;;;5055104;28;20503;-87
2021/10/24 03:07:34;;;;;;;34.85;17.23;;;5.00;99.90;;;;;;5072819;28;20439;-87
2021/10/24 03:10:00;;;;;;;28.92;16.48;;;5.00;99.90;;;;;;5055073;28;20564;-86
2021/10/24 03:12:25;;;;;;;31.45;15.77;;;4.90;99.90;;;;;;5055051;28;20067;-87
2021/10/24 03:14:51;;;;;;;25.48;15.30;;;4.90;99.90;;;;;;5050894;28;20078;-87
2021/10/24 03:17:17;;;;;;;27.75;16.80;;;4.90;99.90;;;;;;5055913;28;20031;-87
2021/10/24 03:19:43;;;;;;;29.60;16.85;;;4.90;99.90;;;;;;5042179;28;20012;-86
2021/10/24 03:22:09;;;;;;;32.50;16.70;;;4.90;99.90;;;;;;5072334;28;20033;-86
2021/10/24 03:24:34;;;;;;;28.05;17.30;;;4.90;99.90;;;;;;5052716;28;20427;-87
2021/10/24 03:27:00;;;;;;;28.10;16.73;;;4.90;99.90;;;;;;5054642;28;20028;-86
2021/10/24 03:29:25;;;;;;;27.58;16.40;;;4.90;99.90;;;;;;5056858;28;20510;-87
2021/10/24 03:31:52;;;;;;;28.88;15.80;;;4.90;99.90;;;;;;5055235;28;20044;-86
2021/10/24 03:34:19;;;;;;;30.25;16.02;;;4.90;99.90;;;;;;5046729;28;20043;-86
2021/10/24 03:36:48;;;;;;;34.85;15.82;;;5.00;99.90;;;;;;5054859;28;20480;-87
2021/10/24 03:39:14;;;;;;;23.83;14.93;;;5.00;99.90;;;;;;5051743;28;20037;-87
2021/10/24 03:41:39;;;;;;;23.77;14.68;;;4.90;99.90;;;;;;5055917;28;20059;-87
2021/10/24 03:44:05;;;;;;;32.63;15.98;;;4.90;99.90;;;;;;5069528;28;20033;-86
2021/10/24 03:46:31;;;;;;;29.02;15.77;;;4.90;99.90;;;;;;5072910;28;20630;-86
2021/10/24 03:48:58;;;;;;;27.92;15.35;;;4.90;99.90;;;;;;5072780;28;20029;-87
2021/10/24 03:51:24;;;;;;;27.15;16.02;;;4.90;99.90;;;;;;5053197;28;20036;-87
2021/10/24 03:53:49;;;;;;;24.35;14.80;;;4.90;99.90;;;;;;5054293;28;20504;-86
2021/10/24 03:56:15;;;;;;;30.38;15.73;;;4.90;99.90;;;;;;5069882;28;20051;-87
2021/10/24 03:58:41;;;;;;;25.52;15.45;;;4.80;99.90;;;;;;5058600;28;20029;-87
2021/10/24 04:01:07;;;;;;;26.90;15.23;;;4.90;99.90;;;;;;5066317;28;20061;-87
2021/10/24 04:03:34;;;;;;;29.23;15.70;;;4.80;99.90;;;;;;5054823;28;20047;-87
2021/10/24 04:06:00;;;;;;;25.35;14.70;;;4.80;99.90;;;;;;5058240;28;20020;-86
2021/10/24 04:08:25;;;;;;;26.23;15.00;;;4.80;99.90;;;;;;5038123;28;20040;-86
2021/10/24 04:10:51;;;;;;;28.80;15.93;;;4.80;99.90;;;;;;5061461;28;20024;-87
2021/10/24 04:13:16;;;;;;;31.80;15.52;;;4.80;99.90;;;;;;5061302;28;20033;-87
2021/10/24 04:15:42;;;;;;;25.27;14.63;;;4.70;99.90;;;;;;5057642;28;20017;-87
2021/10/24 04:18:07;;;;;;;29.83;15.13;;;4.70;99.90;;;;;;5054488;28;20429;-86
2021/10/24 04:20:33;;;;;;;24.15;15.48;;;4.70;99.90;;;;;;5054921;28;20031;-87
2021/10/24 04:22:58;;;;;;;27.70;15.63;;;4.70;99.90;;;;;;5059519;28;20020;-87
2021/10/24 04:25:27;;;;;;;26.38;15.18;;;4.70;99.90;;;;;;5059351;28;20040;-87
2021/10/24 04:27:53;;;;;;;23.20;14.90;;;4.70;99.90;;;;;;5061555;28;20040;-87
2021/10/24 04:30:18;;;;;;;31.27;15.63;;;4.70;99.90;;;;;;5055996;28;20040;-87
2021/10/24 04:32:44;;;;;;;24.30;14.73;;;4.70;99.90;;;;;;5057963;28;20025;-87
2021/10/24 04:35:11;;;;;;;31.55;15.90;;;4.70;99.90;;;;;;5045372;28;20024;-87
2021/10/24 04:37:37;;;;;;;32.85;14.77;;;4.60;99.90;;;;;;5069098;28;20021;-87
2021/10/24 04:40:05;;;;;;;27.70;15.48;;;4.60;99.90;;;;;;5058286;28;20021;-86
2021/10/24 04:42:30;;;;;;;28.75;15.32;;;4.60;99.90;;;;;;5045310;28;20031;-87
2021/10/24 04:44:56;;;;;;;23.90;14.40;;;4.60;99.90;;;;;;5061765;28;20096;-87
2021/10/24 04:47:23;;;;;;;27.35;14.35;;;4.60;99.90;;;;;;5057654;28;20028;-87
2021/10/24 04:49:49;;;;;;;30.38;14.80;;;4.60;99.90;;;;;;5058415;28;20037;-87
2021/10/24 04:52:14;;;;;;;24.65;14.57;;;4.60;99.90;;;;;;5057043;28;20056;-87
2021/10/24 04:54:40;;;;;;;28.23;14.95;;;4.60;99.90;;;;;;5053067;28;20056;-87
2021/10/24 04:57:06;;;;;;;24.88;14.60;;;4.60;99.90;;;;;;5052674;28;20025;-87
2021/10/24 04:59:32;;;;;;;26.13;14.38;;;4.60;99.90;;;;;;5056967;28;20029;-87
2021/10/24 05:01:58;;;;;;;26.80;14.07;;;4.60;99.90;;;;;;5057719;28;20040;-86
2021/10/24 05:04:24;;;;;;;26.58;14.20;;;4.50;99.90;;;;;;5058967;28;20044;-87
2021/10/24 05:06:49;;;;;;;27.95;15.43;;;4.50;99.90;;;;;;5057693;28;20020;-87
2021/10/24 05:09:15;;;;;;;28.02;14.55;;;4.50;99.90;;;;;;5038132;28;20413;-87
2021/10/24 05:11:40;;;;;;;23.98;13.90;;;4.50;99.90;;;;;;5053007;28;20062;-87
2021/10/24 05:14:09;;;;;;;23.35;14.23;;;4.50;99.90;;;;;;5054175;28;20028;-87
2021/10/24 05:16:36;;;;;;;21.65;12.73;;;4.50;99.90;;;;;;5057318;28;20362;-87
2021/10/24 05:19:03;;;;;;;24.48;14.23;;;4.40;99.90;;;;;;5065699;28;20024;-87
2021/10/24 05:21:29;;;;;;;24.75;14.65;;;4.40;99.90;;;;;;5061784;28;20472;-87
2021/10/24 05:23:55;;;;;;;27.55;14.77;;;4.40;99.90;;;;;;5055405;28;20044;-87
2021/10/24 05:26:20;;;;;;;28.20;14.60;;;4.40;99.90;;;;;;5056204;28;20035;-87
2021/10/24 05:28:47;;;;;;;26.58;14.77;;;4.40;99.90;;;;;;5048637;28;20131;-87
2021/10/24 05:31:12;;;;;;;30.17;14.15;;;4.40;99.90;;;;;;5056834;28;20032;-87
2021/10/24 05:33:38;;;;;;;29.23;14.27;;;4.30;99.90;;;;;;5054430;28;20028;-87
2021/10/24 05:36:04;;;;;;;26.05;14.32;;;4.40;99.90;;;;;;5052919;28;20025;-87
2021/10/24 05:38:30;;;;;;;28.45;13.77;;;4.30;99.90;;;;;;5055718;28;20023;-87
2021/10/24 05:40:56;;;;;;;33.08;15.43;;;4.30;99.90;;;;;;5054846;28;20024;-87
2021/10/24 05:43:21;;;;;;;28.90;14.30;;;4.30;99.90;;;;;;5074905;28;20082;-87
2021/10/24 05:45:47;;;;;;;30.33;15.55;;;4.20;99.90;;;;;;5056532;28;20024;-87
2021/10/24 05:48:13;;;;;;;24.58;13.32;;;4.20;99.90;;;;;;5075271;28;20365;-87
2021/10/24 05:50:39;;;;;;;27.60;14.80;;;4.20;99.90;;;;;;5053555;28;20057;-87
2021/10/24 05:53:05;;;;;;;25.48;14.15;;;4.20;99.90;;;;;;5059231;28;20032;-87
2021/10/24 05:55:32;;;;;;;28.27;15.30;;;4.20;99.90;;;;;;5073817;28;20036;-87
2021/10/24 05:57:57;;;;;;;26.77;12.93;;;4.20;99.90;;;;;;5062455;28;20017;-87
2021/10/24 06:00:23;;;;;;;24.60;14.70;;;4.20;99.90;;;;;;5072758;28;20388;-87
2021/10/24 06:02:49;;;;;;;25.65;13.98;;;4.20;99.90;;;;;;5071365;28;20017;-88
2021/10/24 06:05:14;;;;;;;22.70;13.25;;;4.10;99.90;;;;;;5051349;28;20034;-87
2021/10/24 06:07:40;;;;;;;22.65;14.02;;;4.10;99.90;;;;;;5053936;28;20546;-87
2021/10/24 06:10:13;;;;;;;22.50;13.65;;;4.10;99.90;;;;;;5073232;28;20040;-88
2021/10/24 06:12:42;;;;;;;23.83;14.48;;;4.10;99.90;;;;;;5071714;28;20028;-87
2021/10/24 06:15:10;;;;;;;24.88;14.13;;;4.10;99.90;;;;;;5057157;28;20412;-87
2021/10/24 06:17:36;;;;;;;25.25;13.77;;;4.10;99.90;;;;;;5071699;28;20510;-87
2021/10/24 06:20:03;;;;;;;25.88;15.02;;;4.00;99.90;;;;;;5060924;28;20025;-87
2021/10/24 06:22:29;;;;;;;23.95;14.40;;;4.00;99.90;;;;;;5064419;28;20024;-87
2021/10/24 06:24:54;;;;;;;23.00;12.75;;;4.10;99.90;;;;;;5062752;28;20079;-87
2021/10/24 06:27:20;;;;;;;25.20;14.27;;;4.00;99.90;;;;;;5063159;28;20110;-86
2021/10/24 06:29:45;;;;;;;24.40;14.23;;;4.00;99.90;;;;;;5058652;28;20040;-86
2021/10/24 06:32:11;;;;;;;22.48;12.57;;;4.00;99.90;;;;;;5056305;28;20092;-87
2021/10/24 06:34:37;;;;;;;22.58;13.07;;;4.00;99.90;;;;;;5052569;28;20078;-87
2021/10/24 06:37:03;;;;;;;25.85;13.77;;;4.00;99.90;;;;;;5053864;28;20028;-87
2021/10/24 06:39:28;;;;;;;25.42;12.70;;;4.00;99.90;;;;;;5058804;28;20086;-86
2021/10/24 06:41:54;;;;;;;24.35;13.93;;;4.00;99.90;;;;;;5058714;28;20092;-86
2021/10/24 06:44:19;;;;;;;25.17;14.30;;;4.00;99.90;;;;;;5058354;28;20032;-87
2021/10/24 06:46:45;;;;;;;21.30;13.30;;;4.10;99.90;;;;;;5058835;28;20028;-84
2021/10/24 06:49:10;;;;;;;22.38;13.32;;;4.10;99.90;;;;;;5059237;28;20055;-87
2021/10/24 06:51:36;;;;;;;25.15;12.68;;;4.10;99.90;;;;;;5068389;28;20051;-87
2021/10/24 06:54:02;;;;;;;24.48;13.90;;;4.20;99.90;;;;;;5062920;28;20043;-88
2021/10/24 06:56:27;;;;;;;24.90;14.48;;;4.20;99.90;;;;;;5054582;28;20075;-87
2021/10/24 06:58:53;;;;;;;23.73;13.60;;;4.20;99.90;;;;;;5052338;28;20028;-87
2021/10/24 07:01:18;;;;;;;26.70;13.57;;;4.30;99.90;;;;;;5053468;28;20033;-87
2021/10/24 07:03:44;;;;;;;21.50;13.38;;;4.40;99.90;;;;;;5056411;28;20036;-87
2021/10/24 07:06:10;;;;;;;21.63;13.63;;;4.40;99.90;;;;;;5056145;28;20107;-87
2021/10/24 07:08:35;;;;;;;25.25;14.10;;;4.50;99.90;;;;;;5055040;28;20040;-87
2021/10/24 07:11:01;;;;;;;27.40;14.55;;;4.60;99.90;;;;;;5040384;28;20025;-88
2021/10/24 07:13:26;;;;;;;28.48;13.98;;;4.60;99.90;;;;;;5053778;28;20272;-87
2021/10/24 07:15:52;;;;;;;22.98;13.65;;;4.70;99.90;;;;;;5055513;28;20024;-87
2021/10/24 07:18:18;;;;;;;27.27;14.52;;;4.80;99.90;;;;;;5053950;28;20377;-87
2021/10/24 07:20:43;;;;;;;24.45;13.38;;;4.90;99.90;;;;;;5053387;28;20024;-87
2021/10/24 07:23:09;;;;;;;29.10;14.60;;;5.00;99.90;;;;;;5048904;28;20016;-87
2021/10/24 07:25:34;;;;;;;23.27;13.20;;;5.00;99.90;;;;;;5054741;28;20036;-87
2021/10/24 07:28:00;;;;;;;27.00;13.50;;;5.10;99.90;;;;;;5052451;28;20025;-87
2021/10/24 07:30:26;;;;;;;25.70;13.88;;;5.20;99.90;;;;;;5057068;28;20028;-87
2021/10/24 07:32:51;;;;;;;24.30;12.73;;;5.20;99.90;;;;;;5058195;28;20507;-87
2021/10/24 07:35:17;;;;;;;24.70;13.70;;;5.30;99.90;;;;;;5059311;28;20062;-87
2021/10/24 07:37:42;;;;;;;23.67;13.75;;;5.40;99.90;;;;;;5057826;28;20025;-86
2021/10/24 07:40:09;;;;;;;23.65;13.57;;;5.50;99.90;;;;;;5072274;28;20457;-87
2021/10/24 07:42:36;;;;;;;22.50;13.45;;;5.50;99.90;;;;;;5056733;28;20373;-87
2021/10/24 07:45:02;;;;;;;24.45;13.80;;;5.60;99.90;;;;;;5067747;28;20028;-86
2021/10/24 07:47:30;;;;;;;28.33;13.82;;;5.70;99.90;;;;;;5062257;28;20021;-87
2021/10/24 07:49:58;;;;;;;25.13;14.75;;;5.80;99.90;;;;;;5047947;28;20510;-86
2021/10/24 07:52:24;;;;;;;24.60;14.18;;;5.90;99.90;;;;;;5074617;28;20074;-87
2021/10/24 07:54:49;;;;;;;24.75;13.57;;;6.00;99.90;;;;;;5053521;28;20025;-86
2021/10/24 07:57:15;;;;;;;22.67;13.23;;;6.10;99.90;;;;;;5055649;28;20060;-87
2021/10/24 07:59:40;;;;;;;25.90;13.27;;;6.20;99.90;;;;;;5058375;28;20025;-87
2021/10/24 08:02:07;;;;;;;18.90;11.75;;;6.30;99.90;;;;;;5060685;28;20032;-86
2021/10/24 08:04:33;;;;;;;22.98;14.13;;;6.30;99.90;;;;;;5066335;28;20020;-86
2021/10/24 08:07:00;;;;;;;22.88;12.73;;;6.40;99.90;;;;;;5048762;28;20500;-86
2021/10/24 08:09:26;;;;;;;21.92;13.50;;;6.50;99.90;;;;;;5060994;28;20056;-86
2021/10/24 08:11:51;;;;;;;29.88;14.05;;;6.60;99.90;;;;;;5067986;28;20074;-86
2021/10/24 08:14:17;;;;;;;19.88;12.73;;;6.70;99.90;;;;;;5060619;28;20029;-86
2021/10/24 08:16:43;;;;;;;18.92;12.10;;;6.70;99.90;;;;;;5055636;28;20468;-86
2021/10/24 08:19:08;;;;;;;20.65;12.93;;;6.80;99.90;;;;;;5063629;28;20024;-86
2021/10/24 08:21:35;;;;;;;22.02;13.27;;;6.80;99.90;;;;;;5060605;28;20051;-86
2021/10/24 08:24:01;;;;;;;21.10;12.80;;;6.90;99.90;;;;;;5073802;28;20075;-86
2021/10/24 08:26:27;;;;;;;20.50;12.20;;;7.00;99.90;;;;;;5066781;28;20024;-86
2021/10/24 08:28:53;;;;;;;19.35;12.60;;;7.00;99.90;;;;;;5059339;28;20068;-86
2021/10/24 08:31:24;;;;;;;20.10;12.48;;;7.10;99.90;;;;;;5078635;28;20053;-86
2021/10/24 08:33:52;;;;;;;20.20;12.30;;;7.10;99.90;;;;;;5058211;28;20052;-86
2021/10/24 08:36:17;;;;;;;18.10;12.65;;;7.20;99.90;;;;;;5060873;28;20397;-86
2021/10/24 08:38:43;;;;;;;19.90;12.55;;;7.20;99.90;;;;;;5052718;28;20025;-86
2021/10/24 08:41:10;;;;;;;20.63;12.18;;;7.30;99.90;;;;;;5053624;28;20020;-87
2021/10/24 08:43:37;;;;;;;20.85;11.57;;;7.30;99.90;;;;;;5059885;28;20476;-86
2021/10/24 08:46:05;;;;;;;19.20;11.18;;;7.40;99.90;;;;;;5070232;28;20025;-85
2021/10/24 08:48:33;;;;;;;20.83;12.30;;;7.40;99.90;;;;;;5050629;28;20123;-86
2021/10/24 08:50:59;;;;;;;18.15;12.18;;;7.40;99.90;;;;;;5048821;28;20450;-86
2021/10/24 08:53:27;;;;;;;20.63;12.15;;;7.50;99.90;;;;;;5064503;28;20024;-86
2021/10/24 08:55:54;;;;;;;19.73;12.13;;;7.60;99.90;;;;;;5072324;28;20046;-86
2021/10/24 08:58:20;;;;;;;21.02;11.48;;;7.60;99.90;;;;;;5060169;28;20024;-86
2021/10/24 09:00:47;;;;;;;21.92;12.25;;;7.70;99.90;;;;;;5076424;28;20035;-86
2021/10/24 09:03:13;;;;;;;16.98;11.50;;;7.80;99.90;;;;;;5070760;28;20025;-86
2021/10/24 09:05:40;;;;;;;18.95;11.93;;;7.80;99.90;;;;;;5050253;28;20031;-86
2021/10/24 09:08:08;;;;;;;18.20;12.07;;;7.90;99.90;;;;;;5076492;28;20097;-86
2021/10/24 09:10:45;;;;;;;18.98;12.35;;;8.00;99.90;;;;;;5060414;28;20026;-86
2021/10/24 09:13:13;;;;;;;18.98;10.82;;;8.00;99.90;;;;;;5078477;28;20039;-86
2021/10/24 09:15:55;;;;;;;21.65;11.85;;;8.00;99.90;;;;;;5077281;28;20032;-85
2021/10/24 09:18:39;;;;;;;21.33;11.57;;;8.10;99.90;;;;;;5056511;28;20086;-85
2021/10/24 09:21:18;;;;;;;19.55;11.32;;;8.20;99.90;;;;;;5048383;28;20469;-85
2021/10/24 09:24:10;;;;;;;18.13;10.75;;;8.30;99.90;;;;;;5059223;28;20047;-86
2021/10/24 09:26:38;;;;;;;18.30;11.38;;;8.40;99.90;;;;;;5058549;28;20074;-87
2021/10/24 09:29:06;;;;;;;15.30;11.18;;;8.50;99.90;;;;;;5066513;28;20462;-84
2021/10/24 09:31:37;;;;;;;20.55;11.65;;;8.60;99.90;;;;;;5059141;28;20016;-86
2021/10/24 09:34:21;;;;;;;18.83;11.57;;;8.60;99.90;;;;;;5055105;28;20059;-86
2021/10/24 09:36:58;;;;;;;16.55;11.38;;;8.70;99.90;;;;;;5051898;28;20029;-86
2021/10/24 09:39:32;;;;;;;13.88;10.15;;;8.70;99.90;;;;;;5051914;28;20029;-85
2021/10/24 09:42:18;;;;;;;17.13;10.98;;;8.80;99.90;;;;;;5055739;28;20028;-86
2021/10/24 09:45:07;;;;;;;17.65;10.60;;;8.90;99.90;;;;;;5056543;28;20027;-85
2021/10/24 09:47:40;;;;;;;22.58;11.20;;;9.00;99.90;;;;;;5076345;28;20397;-86
2021/10/24 09:50:08;;;;;;;15.30;9.95;;;9.00;99.90;;;;;;5049582;28;20041;-86
2021/10/24 09:52:35;;;;;;;15.98;10.13;;;9.00;99.90;;;;;;5056343;28;20024;-85
2021/10/24 09:55:02;;;;;;;17.33;10.45;;;9.10;99.90;;;;;;5073116;28;20050;-85
2021/10/24 09:57:29;;;;;;;14.25;10.35;;;9.10;99.90;;;;;;5077001;28;20024;-84
2021/10/24 09:59:55;;;;;;;18.15;10.27;;;9.20;99.90;;;;;;5054350;28;20082;-85
2021/10/24 10:02:22;;;;;;;15.40;9.25;;;9.30;99.90;;;;;;5073267;28;20016;-86
2021/10/24 10:04:48;;;;;;;17.65;10.05;;;9.30;99.90;;;;;;5050007;28;20029;-86
2021/10/24 10:07:15;;;;;;;14.57;9.35;;;9.40;99.90;;;;;;5068081;28;20089;-86
2021/10/24 10:09:41;;;;;;;14.02;9.05;;;9.50;99.90;;;;;;5073639;28;20119;-86
2021/10/24 10:12:07;;;;;;;18.70;9.93;;;9.50;99.90;;;;;;5055841;28;20025;-85
2021/10/24 10:14:35;;;;;;;14.10;9.55;;;9.60;99.90;;;;;;5048936;28;20142;-85
2021/10/24 10:17:05;;;;;;;18.45;10.55;;;9.60;99.90;;;;;;5059801;28;20020;-86
2021/10/24 10:19:37;;;;;;;14.35;10.18;;;9.70;99.90;;;;;;5052320;28;20028;-86
2021/10/24 10:22:21;;;;;;;14.32;9.80;;;9.80;99.90;;;;;;5052463;28;20036;-86
2021/10/24 10:24:53;;;;;;;14.82;9.73;;;9.90;99.90;;;;;;5055919;28;20057;-86
2021/10/24 10:27:46;;;;;;;14.88;8.75;;;9.90;99.90;;;;;;5057374;28;20024;-85
2021/10/24 10:30:31;;;;;;;15.75;9.45;;;10.00;99.90;;;;;;5046496;28;20044;-86
2021/10/24 10:32:57;;;;;;;14.30;9.65;;;10.10;99.90;;;;;;5050332;28;20067;-86
2021/10/24 10:35:26;;;;;;;17.23;9.88;;;10.10;99.90;;;;;;5054628;28;20066;-86
2021/10/24 10:38:06;;;;;;;16.75;10.02;;;10.20;99.90;;;;;;5050038;28;20029;-86
2021/10/24 10:40:37;;;;;;;15.73;9.75;;;10.30;99.90;;;;;;5058949;28;20028;-87
2021/10/24 10:43:15;;;;;;;12.57;8.82;;;10.40;99.90;;;;;;5049322;28;20025;-86
2021/10/24 10:45:44;;;;;;;15.10;9.43;;;10.40;99.90;;;;;;5052024;28;20401;-86
2021/10/24 10:48:26;;;;;;;15.38;8.80;;;10.40;99.90;;;;;;5052118;28;20027;-86
2021/10/24 10:50:56;;;;;;;13.55;8.90;;;10.50;99.90;;;;;;5058878;28;20032;-86
2021/10/24 10:53:30;;;;;;;12.98;9.25;;;10.50;99.90;;;;;;5053791;28;20037;-86
2021/10/24 10:55:59;;;;;;;12.25;8.35;;;10.60;99.90;;;;;;5040444;28;20025;-87
2021/10/24 10:58:35;;;;;;;13.70;7.80;;;10.60;99.90;;;;;;5056669;28;20020;-86
2021/10/24 11:01:03;;;;;;;15.85;8.27;;;10.70;99.90;;;;;;5069806;28;20047;-85
2021/10/24 11:03:55;;;;;;;13.27;7.45;;;10.80;99.90;;;;;;5053311;28;20107;-86
2021/10/24 11:06:24;;;;;;;11.07;7.80;;;10.90;99.90;;;;;;5058580;28;20115;-86
2021/10/24 11:08:52;;;;;;;12.30;8.23;;;11.00;99.90;;;;;;5066989;28;20102;-85
2021/10/24 11:11:44;;;;;;;11.63;7.70;;;11.00;99.90;;;;;;5059478;28;20051;-85
2021/10/24 11:14:24;;;;;;;11.23;7.95;;;11.10;99.90;;;;;;5075436;28;20157;-85
2021/10/24 11:16:53;;;;;;;13.13;7.55;;;11.20;99.90;;;;;;5066011;28;20082;-85
2021/10/24 11:19:26;;;;;;;14.10;8.63;;;11.30;99.90;;;;;;5054036;28;20062;-87
2021/10/24 11:21:52;;;;;;;12.18;7.97;;;11.30;99.90;;;;;;5049401;28;20031;-85
2021/10/24 11:24:19;;;;;;;10.20;7.97;;;11.40;99.90;;;;;;5046935;28;20500;-87
2021/10/24 11:26:52;;;;;;;11.52;8.30;;;11.40;99.90;;;;;;5051267;28;20090;-85
2021/10/24 11:29:18;;;;;;;13.43;8.25;;;11.50;99.90;;;;;;5055771;28;20040;-86
2021/10/24 11:31:49;;;;;;;12.32;8.05;;;11.60;99.90;;;;;;5052064;28;20025;-88
2021/10/24 11:34:35;;;;;;;18.05;8.68;;;11.60;99.90;;;;;;5046842;28;20032;-87
2021/10/24 11:37:02;;;;;;;15.30;9.27;;;11.70;99.90;;;;;;5040001;28;20102;-87
2021/10/24 11:39:30;;;;;;;12.40;7.70;;;11.80;99.90;;;;;;5074467;28;20050;-86
2021/10/24 11:42:17;;;;;;;11.80;7.70;;;11.80;99.90;;;;;;5053676;28;20445;-86
2021/10/24 11:44:46;;;;;;;11.80;7.00;;;11.90;99.90;;;;;;5052192;28;20036;-87
2021/10/24 11:47:16;;;;;;;12.90;8.05;;;12.00;99.90;;;;;;5053088;28;20032;-88
2021/10/24 11:49:46;;;;;;;9.02;5.78;;;12.10;99.90;;;;;;5061688;28;20045;-86
2021/10/24 11:52:30;;;;;;;12.93;6.68;;;12.10;99.90;;;;;;5057799;28;20051;-88
2021/10/24 11:55:14;;;;;;;12.35;5.95;;;12.30;99.60;;;;;;5049132;28;20021;-88
2021/10/24 12:00:52;;;;;;;9.88;6.70;;;12.40;99.20;;;;;;5436232;22;20064;-92
2021/10/24 12:03:30;;;;;;;;;;;12.40;98.90;;;;;;5050961;28;20021;-91
2021/10/24 12:06:00;;;;;;;9.70;5.55;;;12.40;98.90;;;;;;5054889;28;19974;-93
2021/10/24 12:08:45;;;;;;;8.50;5.88;;;12.40;98.40;;;;;;5025934;28;20044;-94
2021/10/24 12:11:24;;;;;;;10.98;6.22;;;12.50;98.10;;;;;;5051126;28;20071;-92
2021/10/24 12:14:02;;;;;;;9.15;6.18;;;12.60;98.00;;;;;;5036447;28;20036;-92
2021/10/24 12:16:32;;;;;;;8.10;6.00;;;12.50;97.90;;;;;;5048285;28;20029;-93
2021/10/24 12:19:19;;;;;;;10.23;6.20;;;12.60;97.30;;;;;;5031044;28;20109;-93
2021/10/24 12:22:02;;;;;;;10.70;5.80;;;12.70;97.10;;;;;;5031051;28;20060;-93
2021/10/24 12:24:46;;;;;;;10.25;5.88;;;12.70;97.10;;;;;;5055805;28;20021;-92
2021/10/24 12:27:20;;;;;;;8.60;5.68;;;12.80;97.00;;;;;;5040633;28;20036;-93
2021/10/24 12:30:03;;;;;;;10.30;5.40;;;12.80;96.80;;;;;;5037074;28;20041;-92
2021/10/24 12:32:31;;;;;;;9.40;4.78;;;12.90;96.80;;;;;;5045579;28;20033;-94
2021/10/24 12:35:11;;;;;;;10.25;5.15;;;12.90;96.60;;;;;;5035271;28;20028;-90
2021/10/24 12:37:38;;;;;;;7.43;4.65;;;13.00;96.30;;;;;;5034919;28;20430;-92
2021/10/24 12:40:22;;;;;;;11.05;4.93;;;13.00;96.10;;;;;;5034350;28;20128;-92
2021/10/24 12:43:02;;;;;;;8.30;5.32;;;13.10;96.20;;;;;;5035870;28;20496;-93
2021/10/24 12:45:28;;;;;;;10.32;5.60;;;13.10;96.20;;;;;;5055681;28;20430;-91
2021/10/24 12:47:59;;;;;;;7.72;5.25;;;13.20;96.00;;;;;;5036500;28;20086;-93